Time;durP1;ratioP1;P1;durP2;ratioP2;P2;SDS_P1;SDS_P2;PMS_P1;PMS_P2;Temp;Humidity;BMP_temperature;BMP_pressure;BME280_temperature;BME280_humidity;BME280_pressure;Samples;Min_cycle;Max_cycle;Signal;HPM_P1;HPM_P2
2023/05/10 17:10:39;;;;;;;;;;;;;;;24.10;44.87;101081.41;5035163;27;97925;-61
2023/05/10 17:13:47;;;;;;;;;;;;;;;24.29;44.16;101079.13;5107398;27;98069;-62
2023/05/10 17:16:14;;;;;;;;;;;;;;;24.07;45.09;101090.53;5096278;27;34756;-62
2023/05/10 17:18:42;;;;;;;;;;;;;;;23.77;45.07;101078.16;5107066;27;14232;-61
2023/05/10 17:21:10;;;;;;;;;;;;;;;23.77;45.02;101082.97;5120148;27;13163;-61
2023/05/10 17:23:37;;;;;;;;;;;;;;;23.64;45.25;101086.72;5115547;27;7781;-63
2023/05/10 17:26:04;;;;;;;;;;;;;;;23.66;46.57;101085.28;5092371;27;12125;-63
2023/05/10 17:28:31;;;;;;;;;;;;;;;23.72;46.32;101083.94;5109800;27;13099;-66
2023/05/10 17:30:59;;;;;;;;;;;;;;;23.69;46.31;101089.41;5106217;27;10444;-65
2023/05/10 17:33:53;;;;;;;;;;;;;;;23.53;46.06;101083.38;5128374;27;97927;-72
2023/05/10 17:36:20;;;;;;;;;;;;;;;23.52;46.48;101086.53;5075874;27;37056;-79
2023/05/10 17:38:47;;;;;;;;;;;;;;;23.46;46.37;101081.03;5107317;27;11025;-77
2023/05/10 17:41:15;;;;;;;;;;;;;;;23.58;47.24;101083.22;5080809;27;11675;-76
2023/05/10 17:43:43;;;;;;;;;;;;;;;23.60;46.85;101086.56;5103943;27;13438;-77
2023/05/10 17:46:11;;;;;;;;;;;;;;;23.61;46.85;101085.41;5106695;27;13787;-77
2023/05/10 17:48:39;;;;;;;;;;;;;;;23.59;46.86;101084.06;5088712;27;7418;-76
2023/05/10 17:51:06;;;;;;;;;;;;;;;23.56;47.07;101091.19;5087052;27;10095;-76
2023/05/10 17:53:34;;;;;;;;;;;;;;;23.55;47.30;101085.88;5091137;27;12200;-78
2023/05/10 17:56:01;;;;;;;;;;;;;;;23.62;47.32;101092.69;5079280;27;8997;-77
2023/05/10 17:58:29;;;;;;;;;;;;;;;23.65;47.18;101083.59;5092981;27;7534;-75
2023/05/10 18:00:56;;;;;;;;;;;;;;;23.64;46.88;101083.91;5101807;27;12072;-79
2023/05/10 18:03:23;;;;;;;;;;;;;;;23.67;47.29;101089.72;5084561;27;13582;-75
2023/05/10 18:11:59;;;;;;;;;;;;;;;23.77;47.35;101094.25;4932245;27;2665303;-72
2023/05/10 18:14:27;;;;;;;;;;;;;;;23.70;47.74;101085.44;5100073;27;37772;-74
2023/05/10 18:17:06;;;;;;;;;;;;;;;23.65;47.89;101085.59;5114825;27;10631;-74
2023/05/10 18:19:33;;;;;;;;;;;;;;;23.54;47.86;101081.38;5137569;27;11123;-73
2023/05/10 18:22:01;;;;;;;;;;;;;;;23.62;47.78;101086.25;5138821;27;11309;-73
2023/05/10 18:24:28;;;;;;;;;;;;;;;23.56;48.19;101076.25;5109080;27;12102;-74
2023/05/10 18:27:07;;;;;;;;;;;;;;;23.47;48.18;101082.69;5120426;27;14174;-74
2023/05/10 18:29:36;;;;;;;;;;;;;;;23.40;48.28;101087.09;5136907;27;9528;-74
2023/05/10 18:32:03;;;;;;;;;;;;;;;23.37;48.12;101093.41;5136399;27;11964;-74
2023/05/10 18:34:30;;;;;;;;;;;;;;;23.40;48.32;101084.28;5118855;27;9953;-74
2023/05/10 18:36:58;;;;;;;;;;;;;;;23.49;48.00;101082.34;5117826;27;12045;-76
2023/05/10 18:39:25;;;;;;;;;;;;;;;23.43;48.40;101084.47;5124343;27;11034;-77
2023/05/10 18:41:52;;;;;;;;;;;;;;;23.47;48.18;101081.88;5108168;27;11134;-75
2023/05/10 18:44:20;;;;;;;;;;;;;;;23.37;48.10;101082.94;5114685;27;11488;-75
2023/05/10 18:46:47;;;;;;;;;;;;;;;23.36;48.31;101092.56;5104111;27;9493;-76
2023/05/10 18:49:15;;;;;;;;;;;;;;;23.31;48.37;101089.88;5121747;27;9242;-76
2023/05/10 18:51:44;;;;;;;;;;;;;;;23.31;48.45;101094.69;5115183;27;11340;-76
2023/05/10 18:54:11;;;;;;;;;;;;;;;23.30;48.41;101088.22;5118613;27;10250;-75
2023/05/10 18:56:43;;;;;;;;;;;;;;;23.23;48.72;101093.50;5129739;27;8016;-75
2023/05/10 18:59:10;;;;;;;;;;;;;;;23.19;48.89;101092.47;5122531;27;9146;-75
2023/05/10 19:01:39;;;;;;;;;;;;;;;23.19;48.67;101097.28;5122541;27;7829;-76
2023/05/10 19:04:07;;;;;;;;;;;;;;;23.18;48.95;101101.25;5124217;27;12457;-76
2023/05/10 19:06:35;;;;;;;;;;;;;;;23.15;48.87;101099.91;5132594;27;9454;-76
2023/05/10 19:09:02;;;;;;;;;;;;;;;23.14;48.91;101106.69;5113625;27;6929;-75
2023/05/10 19:11:32;;;;;;;;;;;;;;;23.13;48.97;101105.03;5126170;27;11470;-75
2023/05/10 19:14:00;;;;;;;;;;;;;;;23.10;48.99;101100.03;5132097;27;9857;-76
2023/05/10 19:16:28;;;;;;;;;;;;;;;23.08;49.15;101105.16;5114901;27;9715;-76
2023/05/10 19:18:55;;;;;;;;;;;;;;;23.05;49.17;101098.19;5132884;27;11631;-75
2023/05/10 19:21:23;;;;;;;;;;;;;;;23.07;49.23;101103.53;5087734;27;9983;-75
2023/05/10 19:23:52;;;;;;;;;;;;;;;23.07;49.39;101109.16;5110628;27;5794;-75
2023/05/10 19:26:19;;;;;;;;;;;;;;;23.07;49.50;101108.31;5117781;27;12088;-74
2023/05/10 19:28:49;;;;;;;;;;;;;;;23.08;49.31;101112.81;5108720;27;8375;-73
2023/05/10 19:31:16;;;;;;;;;;;;;;;23.02;49.40;101104.50;5116095;27;11036;-73
2023/05/10 19:33:43;;;;;;;;;;;;;;;23.04;49.37;101110.63;5091655;27;14340;-73
2023/05/10 19:36:11;;;;;;;;;;;;;;;23.00;49.33;101111.56;5103743;27;9976;-75
2023/05/10 19:38:38;;;;;;;;;;;;;;;23.01;49.51;101118.88;5111210;27;7981;-74
2023/05/10 19:41:05;;;;;;;;;;;;;;;23.00;49.77;101120.03;5085102;27;12067;-75
2023/05/10 19:43:33;;;;;;;;;;;;;;;23.00;49.47;101118.06;5093880;27;9474;-74
2023/05/10 19:46:00;;;;;;;;;;;;;;;23.00;49.66;101117.22;5118220;27;8328;-74
2023/05/10 19:48:27;;;;;;;;;;;;;;;22.93;49.75;101123.31;5124592;27;7767;-75
2023/05/10 19:50:58;;;;;;;;;;;;;;;22.93;49.75;101123.31;5108816;27;11099;-72
2023/05/10 19:53:26;;;;;;;;;;;;;;;22.93;49.72;101134.59;5102005;27;6873;-73
2023/05/10 19:55:53;;;;;;;;;;;;;;;22.96;49.13;101133.94;5109371;27;9364;-75
2023/05/10 19:58:22;;;;;;;;;;;;;;;23.00;48.14;101129.31;5110625;27;12682;-74
2023/05/10 20:00:49;;;;;;;;;;;;;;;22.94;47.74;101132.59;5091652;27;9084;-73
2023/05/10 20:03:16;;;;;;;;;;;;;;;22.91;47.13;101144.50;5116024;27;13651;-74
2023/05/10 20:05:43;;;;;;;;;;;;;;;22.84;46.93;101153.41;5112684;27;10599;-74
2023/05/10 20:08:10;;;;;;;;;;;;;;;22.91;47.02;101153.78;5078637;27;18586;-78
2023/05/10 20:10:37;;;;;;;;;;;;;;;22.88;46.11;101151.63;5115333;27;11636;-77
2023/05/10 20:13:03;;;;;;;;;;;;;;;22.83;45.50;101150.91;5117144;27;10027;-76
2023/05/10 20:15:30;;;;;;;;;;;;;;;22.76;46.56;101156.16;5089266;27;11605;-76
2023/05/10 20:17:58;;;;;;;;;;;;;;;22.74;46.56;101164.09;5117109;27;13817;-75
2023/05/10 20:20:26;;;;;;;;;;;;;;;22.74;47.55;101158.44;5104543;27;9673;-72
2023/05/10 20:22:54;;;;;;;;;;;;;;;22.70;48.30;101161.09;5078652;27;12910;-73
2023/05/10 20:25:21;;;;;;;;;;;;;;;22.78;48.13;101165.94;5111413;27;11333;-72
2023/05/10 20:27:49;;;;;;;;;;;;;;;22.73;48.33;101168.88;5114289;27;11087;-73
2023/05/10 20:30:16;;;;;;;;;;;;;;;22.67;48.56;101166.50;5089521;27;9224;-72
2023/05/10 20:32:44;;;;;;;;;;;;;;;22.61;48.84;101166.59;5117009;27;9229;-72
2023/05/10 20:35:12;;;;;;;;;;;;;;;22.63;48.82;101171.91;5088897;27;8974;-72
2023/05/10 20:37:41;;;;;;;;;;;;;;;22.59;48.80;101171.72;5094321;27;5431;-73
2023/05/10 20:40:10;;;;;;;;;;;;;;;22.61;48.82;101172.25;5108999;27;7525;-73
2023/05/10 20:42:38;;;;;;;;;;;;;;;22.59;49.05;101174.53;5114515;27;5416;-73
2023/05/10 20:45:06;;;;;;;;;;;;;;;22.63;48.96;101171.91;5113948;27;8125;-73
2023/05/10 20:47:34;;;;;;;;;;;;;;;22.62;48.87;101178.72;5088604;27;5515;-73
2023/05/10 20:50:01;;;;;;;;;;;;;;;22.56;49.09;101169.53;5110874;27;13894;-73
2023/05/10 20:52:28;;;;;;;;;;;;;;;22.56;49.16;101178.00;5112694;27;15640;-73
2023/05/10 20:54:55;;;;;;;;;;;;;;;22.57;49.08;101185.28;5076628;27;13404;-74
2023/05/10 20:57:25;;;;;;;;;;;;;;;22.59;49.05;101174.53;5096525;27;11410;-73
2023/05/10 20:59:52;;;;;;;;;;;;;;;22.57;49.28;101184.47;5111399;27;13308;-73
2023/05/10 21:02:19;;;;;;;;;;;;;;;22.52;49.39;101178.94;5115671;27;9282;-73
2023/05/10 21:04:47;;;;;;;;;;;;;;;22.53;49.20;101174.97;5108819;27;8986;-73
2023/05/10 21:07:13;;;;;;;;;;;;;;;22.53;48.96;101178.59;5118330;27;10023;-73
2023/05/10 21:09:40;;;;;;;;;;;;;;;22.52;49.18;101187.38;5118546;27;9231;-73
2023/05/10 21:12:08;;;;;;;;;;;;;;;22.50;49.20;101176.44;5080042;27;10377;-73
2023/05/10 21:14:35;;;;;;;;;;;;;;;22.50;49.38;101178.41;5110608;27;7294;-73
2023/05/10 21:17:02;;;;;;;;;;;;;;;22.48;49.35;101180.72;5115912;27;8466;-73
2023/05/10 21:19:29;;;;;;;;;;;;;;;22.55;48.99;101184.75;5075390;27;9789;-73
2023/05/10 21:21:57;;;;;;;;;;;;;;;22.50;49.21;101189.66;5107532;27;9181;-73
2023/05/10 21:24:24;;;;;;;;;;;;;;;22.48;49.32;101177.91;5092081;27;11856;-73
2023/05/10 21:26:51;;;;;;;;;;;;;;;22.50;49.31;101184.03;5100151;27;9949;-73
2023/05/10 21:29:19;;;;;;;;;;;;;;;22.43;49.54;101187.31;5123578;27;5376;-73
2023/05/10 21:31:46;;;;;;;;;;;;;;;22.46;49.34;101185.81;5090324;27;10041;-73
2023/05/10 21:34:13;;;;;;;;;;;;;;;22.44;49.58;101188.13;5097226;27;12362;-73
2023/05/10 21:36:40;;;;;;;;;;;;;;;22.40;49.77;101187.06;5090888;27;9749;-73
2023/05/10 21:39:09;;;;;;;;;;;;;;;22.48;49.38;101190.00;5115967;27;7810;-74
2023/05/10 21:44:08;;;;;;;;;;;;;;;21.40;51.88;101188.78;5152364;27;98110;-56
2023/05/10 21:46:35;;;;;;;;;;;;;;;20.86;53.81;101195.00;5152100;27;34350;-56
2023/05/10 21:49:02;;;;;;;;;;;;;;;20.69;55.56;101197.50;5114112;27;15726;-57
2023/05/10 21:51:31;;;;;;;;;;;;;;;20.53;55.84;101196.91;5112147;27;11890;-57
2023/05/10 21:53:58;;;;;;;;;;;;;;;20.42;56.18;101193.41;5113601;27;10779;-57
2023/05/10 21:56:24;;;;;;;;;;;;;;;20.38;57.00;101185.88;5113961;27;19121;-57
2023/05/10 21:58:51;;;;;;;;;;;;;;;20.36;57.12;101190.97;5119969;27;11143;-57
2023/05/10 22:01:18;;;;;;;;;;;;;;;20.34;57.40;101187.63;5153518;27;8252;-57
2023/05/10 22:03:45;;;;;;;;;;;;;;;20.33;57.33;101195.22;5113339;27;9264;-59
2023/05/10 22:06:12;;;;;;;;;;;;;;;20.35;57.77;101192.94;5116243;27;12262;-57
2023/05/10 22:08:41;;;;;;;;;;;;;;;20.35;57.93;101192.94;5143286;27;14137;-57
2023/05/10 22:11:08;;;;;;;;;;;;;;;20.33;57.83;101188.75;5116019;27;7328;-57
2023/05/10 22:13:34;;;;;;;;;;;;;;;20.37;58.07;101187.03;5138954;27;9246;-57
2023/05/10 22:16:01;;;;;;;;;;;;;;;20.35;58.22;101187.31;5129162;27;12279;-57
2023/05/10 22:18:28;;;;;;;;;;;;;;;20.36;58.28;101186.19;5120412;27;10192;-57
2023/05/10 22:20:55;;;;;;;;;;;;;;;20.38;58.07;101185.88;5136429;27;10274;-56
2023/05/10 22:23:22;;;;;;;;;;;;;;;20.38;58.06;101186.72;5121448;27;7750;-58
2023/05/10 22:25:49;;;;;;;;;;;;;;;20.39;58.42;101187.56;5141503;27;6535;-58
2023/05/10 22:28:16;;;;;;;;;;;;;;;20.38;58.21;101186.72;5138526;27;9707;-58
2023/05/10 22:30:42;;;;;;;;;;;;;;;20.40;58.29;101197.63;5115243;27;8180;-57
2023/05/10 22:33:09;;;;;;;;;;;;;;;20.41;58.43;101190.88;5132937;27;12515;-57
2023/05/10 22:35:38;;;;;;;;;;;;;;;20.40;58.27;101190.06;5118488;27;12219;-57
2023/05/10 22:38:05;;;;;;;;;;;;;;;20.41;58.49;101188.09;5118810;27;8004;-57
2023/05/10 22:40:32;;;;;;;;;;;;;;;20.41;58.72;101191.72;5131390;27;8148;-56
2023/05/10 22:42:58;;;;;;;;;;;;;;;20.41;58.62;101194.53;5116646;27;8020;-57
2023/05/10 22:45:26;;;;;;;;;;;;;;;20.44;58.49;101192.28;5111450;27;7755;-57
2023/05/10 22:47:52;;;;;;;;;;;;;;;20.42;58.82;101190.59;5116705;27;8224;-57
2023/05/10 22:50:20;;;;;;;;;;;;;;;20.42;58.80;101187.78;5131366;27;7828;-59
2023/05/10 22:52:47;;;;;;;;;;;;;;;20.44;58.96;101195.09;5131077;27;5970;-57
2023/05/10 22:55:13;;;;;;;;;;;;;;;20.44;59.04;101193.13;5120896;27;12190;-57
2023/05/10 22:57:40;;;;;;;;;;;;;;;20.45;58.83;101193.91;5099395;27;9511;-57
2023/05/10 23:00:13;;;;;;;;;;;;;;;20.44;58.81;101195.91;5115806;27;8114;-57
2023/05/10 23:02:43;;;;;;;;;;;;;;;20.44;58.62;101190.31;5105651;27;9660;-57
2023/05/10 23:05:09;;;;;;;;;;;;;;;20.44;58.78;101195.09;5105418;27;10852;-56
2023/05/10 23:07:36;;;;;;;;;;;;;;;20.45;58.84;101197.56;5107385;27;10873;-57
2023/05/10 23:10:06;;;;;;;;;;;;;;;20.45;58.86;101196.72;5105938;27;7937;-57
2023/05/10 23:12:33;;;;;;;;;;;;;;;20.46;58.70;101192.78;5106266;27;9339;-57
2023/05/10 23:14:59;;;;;;;;;;;;;;;20.47;58.77;101194.47;5110459;27;17202;-56
2023/05/10 23:17:26;;;;;;;;;;;;;;;20.46;58.63;101195.59;5121805;27;7808;-57
2023/05/10 23:19:53;;;;;;;;;;;;;;;20.46;58.77;101192.78;5097632;27;10895;-56
2023/05/10 23:22:19;;;;;;;;;;;;;;;20.46;58.75;101188.00;5099780;27;12268;-58
2023/05/10 23:24:46;;;;;;;;;;;;;;;20.46;58.61;101190.81;5102216;27;7759;-56
2023/05/10 23:27:13;;;;;;;;;;;;;;;20.45;58.99;101196.72;5104428;27;7790;-58
2023/05/10 23:29:40;;;;;;;;;;;;;;;20.45;58.84;101191.94;5098406;27;16125;-58
2023/05/10 23:32:09;;;;;;;;;;;;;;;20.45;58.80;101199.53;5145242;27;16028;-59
2023/05/10 23:34:36;;;;;;;;;;;;;;;20.46;58.70;101190.81;5103092;27;15666;-58
2023/05/10 23:37:03;;;;;;;;;;;;;;;20.47;58.66;101198.13;5106133;27;15657;-58
2023/05/10 23:39:29;;;;;;;;;;;;;;;20.46;58.84;101195.59;5105832;27;9452;-58
2023/05/10 23:41:56;;;;;;;;;;;;;;;20.46;58.78;101198.41;5099976;27;7771;-58
2023/05/10 23:44:23;;;;;;;;;;;;;;;20.47;58.79;101197.28;5125510;27;6420;-58
2023/05/10 23:46:50;;;;;;;;;;;;;;;20.49;58.77;101189.41;5104169;27;5761;-58
2023/05/10 23:49:17;;;;;;;;;;;;;;;20.48;59.14;101191.38;5102838;27;10869;-58
2023/05/10 23:51:43;;;;;;;;;;;;;;;20.48;58.98;101196.97;5102492;27;9640;-58
2023/05/10 23:54:11;;;;;;;;;;;;;;;20.51;58.69;101201.97;5105374;27;12425;-58
2023/05/10 23:56:37;;;;;;;;;;;;;;;20.49;58.65;101204.25;5101189;27;9658;-59
2023/05/10 23:59:04;;;;;;;;;;;;;;;20.49;58.72;101203.44;5113444;27;7931;-57
